Time;durP1;ratioP1;P1;durP2;ratioP2;P2;SDS_P1;SDS_P2;PMS_P1;PMS_P2;Temp;Humidity;BMP_temperature;BMP_pressure;BME280_temperature;BME280_humidity;BME280_pressure;Samples;Min_cycle;Max_cycle;Signal;HPM_P1;HPM_P2
2023/01/27 00:01:51;;;;;;;16.45;7.38;;;4.30;99.90;;;;;;5136408;27;20063;-74
2023/01/27 00:04:16;;;;;;;18.08;6.57;;;4.30;99.90;;;;;;5155130;27;20144;-74
2023/01/27 00:06:42;;;;;;;15.02;7.10;;;4.30;99.90;;;;;;5153936;27;20074;-74
2023/01/27 00:09:08;;;;;;;13.15;6.15;;;4.30;99.90;;;;;;5137810;27;20598;-73
2023/01/27 00:14:17;;;;;;;20.92;7.28;;;4.30;99.90;;;;;;5134187;27;20583;-74
2023/01/27 00:16:43;;;;;;;19.35;6.70;;;4.30;99.90;;;;;;5133739;27;20138;-73
2023/01/27 00:19:09;;;;;;;18.45;7.40;;;4.30;99.90;;;;;;5133597;27;20043;-75
2023/01/27 00:24:37;;;;;;;18.05;7.40;;;4.30;99.90;;;;;;5134089;27;20050;-74
2023/01/27 00:27:08;;;;;;;20.05;9.25;;;4.40;99.90;;;;;;5133198;27;20088;-75
2023/01/27 00:29:37;;;;;;;21.33;9.43;;;4.40;99.90;;;;;;5143581;27;20122;-74
2023/01/27 00:34:47;;;;;;;25.88;8.60;;;4.30;99.90;;;;;;5153651;27;20050;-74
2023/01/27 00:37:14;;;;;;;19.42;8.48;;;4.40;99.90;;;;;;5135797;27;20039;-74
2023/01/27 00:39:40;;;;;;;22.83;10.15;;;4.30;99.90;;;;;;5133200;27;20043;-74
2023/01/27 00:42:06;;;;;;;20.80;8.63;;;4.50;99.90;;;;;;5132732;27;20488;-73
2023/01/27 00:44:31;;;;;;;20.30;8.73;;;4.40;99.90;;;;;;5132981;27;20053;-74
2023/01/27 00:46:57;;;;;;;19.73;9.07;;;4.40;99.90;;;;;;5133724;27;20495;-74
2023/01/27 00:49:23;;;;;;;20.70;8.85;;;4.30;99.90;;;;;;5121295;27;20129;-73
2023/01/27 00:51:49;;;;;;;22.48;8.63;;;4.30;99.90;;;;;;5118802;27;20074;-73
2023/01/27 00:54:15;;;;;;;22.65;8.70;;;4.30;99.90;;;;;;5136706;27;20070;-74
2023/01/27 00:56:41;;;;;;;24.40;9.38;;;4.30;99.90;;;;;;5132020;27;20104;-74
2023/01/27 00:59:06;;;;;;;19.58;7.72;;;4.40;99.90;;;;;;5132900;27;20488;-73
2023/01/27 01:01:32;;;;;;;18.02;7.07;;;4.30;99.90;;;;;;5132760;27;20047;-74
2023/01/27 01:03:59;;;;;;;16.52;7.65;;;4.30;99.90;;;;;;5097722;27;20054;-74
2023/01/27 01:06:25;;;;;;;19.08;6.75;;;4.40;99.90;;;;;;5132697;27;20043;-74
2023/01/27 01:08:51;;;;;;;17.15;6.80;;;4.30;99.90;;;;;;5132743;27;20114;-75
2023/01/27 01:11:18;;;;;;;15.73;7.13;;;4.40;99.90;;;;;;5133131;27;20484;-79
2023/01/27 01:13:45;;;;;;;13.75;5.55;;;4.40;99.90;;;;;;5131273;27;20107;-75
2023/01/27 01:16:20;;;;;;;12.20;6.20;;;4.30;99.90;;;;;;5133052;27;20385;-73
2023/01/27 01:18:46;;;;;;;15.73;5.75;;;4.40;99.90;;;;;;5139830;27;20098;-74
2023/01/27 01:21:13;;;;;;;13.07;5.72;;;4.40;99.90;;;;;;5153301;27;20047;-73
2023/01/27 01:23:42;;;;;;;12.55;5.38;;;4.40;99.90;;;;;;5125101;27;20043;-75
2023/01/27 01:26:10;;;;;;;15.45;5.85;;;4.40;99.90;;;;;;5114618;27;20043;-74
2023/01/27 01:28:36;;;;;;;13.70;6.63;;;4.40;99.90;;;;;;5131134;27;20054;-74
2023/01/27 01:31:10;;;;;;;15.65;6.05;;;4.40;99.90;;;;;;5152991;27;20043;-74
2023/01/27 01:33:36;;;;;;;12.05;5.63;;;4.40;99.90;;;;;;5152735;27;20465;-74
2023/01/27 01:36:04;;;;;;;14.07;5.22;;;4.50;99.90;;;;;;5153038;27;20049;-75
2023/01/27 01:38:30;;;;;;;11.68;4.43;;;4.40;99.90;;;;;;5145756;27;20050;-74
2023/01/27 01:40:56;;;;;;;12.70;5.43;;;4.50;99.90;;;;;;5133920;27;20058;-74
2023/01/27 01:43:21;;;;;;;12.50;4.80;;;4.40;99.90;;;;;;5147377;27;20095;-74
2023/01/27 01:45:50;;;;;;;10.07;4.30;;;4.40;99.90;;;;;;5152838;27;20165;-74
2023/01/27 01:48:31;;;;;;;10.55;4.32;;;4.40;99.90;;;;;;5152813;27;20046;-73
2023/01/27 01:51:07;;;;;;;11.10;5.10;;;4.40;99.90;;;;;;5152489;27;20669;-74
2023/01/27 01:53:58;;;;;;;9.05;4.43;;;4.30;99.90;;;;;;5152729;27;20096;-78
2023/01/27 01:56:30;;;;;;;10.18;3.88;;;4.40;99.90;;;;;;5149860;27;20392;-75
2023/01/27 01:59:02;;;;;;;11.35;4.60;;;4.40;99.90;;;;;;5132396;27;20077;-76
2023/01/27 02:01:28;;;;;;;10.27;3.60;;;4.40;99.90;;;;;;5131839;27;20536;-75
2023/01/27 02:03:57;;;;;;;9.20;4.30;;;4.40;99.90;;;;;;5131665;27;20082;-74
2023/01/27 02:06:24;;;;;;;12.13;3.70;;;4.40;99.90;;;;;;5131465;27;20046;-74
2023/01/27 02:08:50;;;;;;;6.88;3.15;;;4.40;99.90;;;;;;5141950;27;20046;-74
2023/01/27 02:11:17;;;;;;;7.32;3.35;;;4.50;99.90;;;;;;5152756;27;20053;-74
2023/01/27 02:13:43;;;;;;;7.18;3.08;;;4.40;99.90;;;;;;5147014;27;20054;-74
2023/01/27 02:16:10;;;;;;;6.05;3.15;;;4.60;99.90;;;;;;5131835;27;20054;-75
2023/01/27 02:18:39;;;;;;;7.45;3.28;;;4.40;99.90;;;;;;5131060;27;20083;-78
2023/01/27 02:21:05;;;;;;;7.38;3.05;;;4.50;99.90;;;;;;5149188;27;20043;-74
2023/01/27 02:23:43;;;;;;;9.40;3.15;;;4.40;99.90;;;;;;5144072;27;20054;-74
2023/01/27 02:26:23;;;;;;;4.88;2.50;;;4.40;99.90;;;;;;5131964;27;20043;-74
2023/01/27 02:28:58;;;;;;;4.55;2.28;;;4.50;99.90;;;;;;5130716;27;20043;-74
2023/01/27 02:31:24;;;;;;;5.50;2.58;;;4.50;99.90;;;;;;5133896;27;20055;-73
2023/01/27 02:33:56;;;;;;;5.45;2.88;;;4.40;99.90;;;;;;5129278;27;20057;-73
2023/01/27 02:36:22;;;;;;;6.75;3.00;;;4.50;99.90;;;;;;5151904;27;20054;-75
2023/01/27 02:38:54;;;;;;;5.93;2.85;;;4.50;99.90;;;;;;5151562;27;20059;-73
2023/01/27 02:41:32;;;;;;;5.20;2.40;;;4.50;99.90;;;;;;5149809;27;20046;-74
2023/01/27 02:43:58;;;;;;;6.05;2.42;;;4.50;99.90;;;;;;5135510;27;20433;-73
2023/01/27 02:46:24;;;;;;;6.05;3.25;;;4.50;99.90;;;;;;5125626;27;20053;-73
2023/01/27 02:48:50;;;;;;;6.70;2.80;;;4.50;99.90;;;;;;5151250;27;20387;-73
2023/01/27 02:51:15;;;;;;;5.15;2.28;;;4.50;99.90;;;;;;5150078;27;20568;-74
2023/01/27 02:53:41;;;;;;;5.75;2.50;;;4.50;99.90;;;;;;5149278;27;20050;-74
2023/01/27 02:56:07;;;;;;;6.00;2.22;;;4.50;99.90;;;;;;5156549;27;20053;-74
2023/01/27 02:58:33;;;;;;;7.60;2.72;;;4.50;99.90;;;;;;5155268;27;20042;-73
2023/01/27 03:00:58;;;;;;;9.43;2.78;;;4.50;99.90;;;;;;5155885;27;20177;-75
2023/01/27 03:03:24;;;;;;;6.65;2.40;;;4.50;99.90;;;;;;5154123;27;20043;-74
2023/01/27 03:05:50;;;;;;;4.43;2.20;;;4.60;99.90;;;;;;5154621;27;20488;-74
2023/01/27 03:08:17;;;;;;;4.97;2.65;;;4.60;99.90;;;;;;5149381;27;20074;-74
2023/01/27 03:10:43;;;;;;;5.35;2.28;;;4.60;99.90;;;;;;5135046;27;20541;-74
2023/01/27 03:13:09;;;;;;;6.30;2.45;;;4.50;99.90;;;;;;5134328;27;20042;-76
2023/01/27 03:18:21;;;;;;;6.13;2.58;;;4.50;99.90;;;;;;5137103;27;20099;-74
2023/01/27 03:20:48;;;;;;;5.40;1.92;;;4.60;99.90;;;;;;5135142;27;20089;-73
2023/01/27 03:23:16;;;;;;;4.95;2.17;;;4.50;99.90;;;;;;5155196;27;20078;-75
2023/01/27 03:25:43;;;;;;;5.03;2.13;;;4.50;99.90;;;;;;5153557;27;20444;-78
2023/01/27 03:28:10;;;;;;;9.40;2.85;;;4.50;99.90;;;;;;5134124;27;20108;-75
2023/01/27 03:30:36;;;;;;;7.75;2.15;;;4.50;99.90;;;;;;5135215;27;20061;-73
2023/01/27 03:33:02;;;;;;;3.42;1.90;;;4.50;99.90;;;;;;5134202;27;20039;-74
2023/01/27 03:35:33;;;;;;;4.70;2.10;;;4.50;99.90;;;;;;5151980;27;20047;-73
2023/01/27 03:46:19;;;;;;;2.50;1.60;;;4.50;99.90;;;;;;5155661;27;20103;-73
2023/01/27 03:48:50;;;;;;;3.90;2.17;;;4.50;99.90;;;;;;5153357;27;20047;-74
2023/01/27 03:51:17;;;;;;;3.45;1.90;;;4.60;99.90;;;;;;5155122;27;20054;-74
2023/01/27 03:53:42;;;;;;;6.47;2.17;;;4.50;99.90;;;;;;5130474;27;20050;-78
2023/01/27 03:56:08;;;;;;;5.10;1.80;;;4.50;99.90;;;;;;5149472;27;20043;-73
2023/01/27 03:58:35;;;;;;;4.07;1.90;;;4.50;99.90;;;;;;5154142;27;20782;-73
2023/01/27 04:01:10;;;;;;;2.80;1.83;;;4.50;99.90;;;;;;5154468;27;20051;-74
2023/01/27 04:09:10;;;;;;;2.95;1.90;;;4.50;99.90;;;;;;5149216;27;20039;-74
2023/01/27 04:11:54;;;;;;;2.47;1.80;;;4.50;99.90;;;;;;5133697;27;20117;-74
2023/01/27 04:14:21;;;;;;;2.83;1.80;;;4.50;99.90;;;;;;5134139;27;20043;-73
2023/01/27 04:16:47;;;;;;;3.13;1.90;;;4.70;99.90;;;;;;5133810;27;20046;-73
2023/01/27 04:19:13;;;;;;;;;;;4.40;99.90;;;;;;5136859;27;20153;-74
2023/01/27 04:21:39;;;;;;;2.28;1.42;;;4.60;99.90;;;;;;5152850;27;20021;-75
2023/01/27 04:24:07;;;;;;;;;;;4.50;99.90;;;;;;5154792;27;20142;-74
2023/01/27 04:26:34;;;;;;;3.60;2.05;;;4.50;99.90;;;;;;5154306;27;19923;-73
2023/01/27 04:29:01;;;;;;;4.50;1.83;;;4.50;99.90;;;;;;5117935;27;20399;-74
2023/01/27 04:31:26;;;;;;;4.32;1.95;;;4.50;99.90;;;;;;5154620;27;20449;-74
2023/01/27 04:33:52;;;;;;;5.47;1.90;;;4.50;99.90;;;;;;5152140;27;20038;-75
2023/01/27 04:36:18;;;;;;;3.80;2.08;;;4.50;99.90;;;;;;5154114;27;20106;-74
2023/01/27 04:38:44;;;;;;;2.60;1.50;;;4.40;99.90;;;;;;5143675;27;20100;-74
2023/01/27 04:41:10;;;;;;;3.20;2.00;;;4.50;99.90;;;;;;5119413;27;20047;-73
2023/01/27 04:43:35;;;;;;;3.80;1.77;;;4.50;99.90;;;;;;5114423;27;20488;-73
2023/01/27 04:46:01;;;;;;;2.70;1.92;;;4.50;99.90;;;;;;5133092;27;20092;-74
2023/01/27 04:48:27;;;;;;;4.75;2.00;;;4.50;99.90;;;;;;5133333;27;20413;-73
2023/01/27 04:50:53;;;;;;;3.20;1.90;;;4.50;99.90;;;;;;5114888;27;20096;-73
2023/01/27 04:53:18;;;;;;;3.63;1.85;;;4.40;99.90;;;;;;5132729;27;20138;-73
2023/01/27 04:55:47;;;;;;;5.30;2.03;;;4.40;99.90;;;;;;5137557;27;20051;-73
2023/01/27 04:58:15;;;;;;;3.80;1.90;;;4.40;99.90;;;;;;5131802;27;20035;-74
2023/01/27 05:00:41;;;;;;;5.57;1.90;;;4.40;99.90;;;;;;5132954;27;20130;-73
2023/01/27 05:03:09;;;;;;;3.00;1.60;;;4.30;99.90;;;;;;5132132;27;20096;-73
2023/01/27 05:05:35;;;;;;;2.30;1.40;;;4.40;99.90;;;;;;5133407;27;20051;-74
2023/01/27 05:08:08;;;;;;;;;;;4.40;99.90;;;;;;5132438;27;20050;-73
2023/01/27 05:10:34;;;;;;;2.20;1.52;;;4.40;99.90;;;;;;5133324;27;19923;-73
2023/01/27 05:13:01;;;;;;;2.08;1.42;;;4.40;99.90;;;;;;5131299;27;20055;-75
2023/01/27 05:15:27;;;;;;;2.25;1.60;;;4.30;99.90;;;;;;5133954;27;20046;-74
2023/01/27 05:17:53;;;;;;;2.30;1.35;;;4.30;99.90;;;;;;5152343;27;20046;-79
2023/01/27 05:20:19;;;;;;;;;;;4.30;99.90;;;;;;5153845;27;20395;-74
2023/01/27 05:22:45;;;;;;;2.60;1.33;;;4.40;99.90;;;;;;5152795;27;19919;-73
2023/01/27 05:25:11;;;;;;;1.80;1.27;;;4.40;99.90;;;;;;5153010;27;20042;-73
2023/01/27 05:27:37;;;;;;;1.92;1.30;;;4.30;99.90;;;;;;5134130;27;20091;-73
2023/01/27 05:30:03;;;;;;;5.82;1.83;;;4.30;99.90;;;;;;5152816;27;20039;-73
2023/01/27 05:32:28;;;;;;;;;;;4.30;99.90;;;;;;5153871;27;20039;-75
2023/01/27 05:34:54;;;;;;;1.70;1.30;;;4.30;99.90;;;;;;5152839;27;20440;-79
2023/01/27 05:37:19;;;;;;;2.85;1.30;;;4.30;99.90;;;;;;5150696;27;20429;-73
2023/01/27 05:39:45;;;;;;;4.97;1.92;;;4.30;99.90;;;;;;5146003;27;20077;-73
2023/01/27 05:42:11;;;;;;;2.55;1.20;;;4.30;99.90;;;;;;5151882;27;20082;-73
2023/01/27 05:44:36;;;;;;;4.53;1.80;;;4.30;99.90;;;;;;5134677;27;20050;-73
2023/01/27 05:47:02;;;;;;;2.08;1.30;;;4.30;99.90;;;;;;5152611;27;20054;-74
2023/01/27 05:49:28;;;;;;;2.45;1.40;;;4.20;99.90;;;;;;5152771;27;20515;-73
2023/01/27 05:51:53;;;;;;;4.55;1.40;;;4.20;99.90;;;;;;5152581;27;20582;-73
2023/01/27 05:54:19;;;;;;;2.10;1.45;;;4.20;99.90;;;;;;5152048;27;20082;-74
2023/01/27 05:56:45;;;;;;;4.28;1.52;;;4.10;99.90;;;;;;5151950;27;20157;-74
2023/01/27 05:59:10;;;;;;;6.38;1.40;;;4.10;99.90;;;;;;5152057;27;20099;-72
2023/01/27 06:01:36;;;;;;;2.25;1.38;;;4.10;99.90;;;;;;5146397;27;20460;-74
2023/01/27 06:04:03;;;;;;;2.88;1.70;;;4.10;99.90;;;;;;5131347;27;20039;-73
2023/01/27 06:06:30;;;;;;;2.67;1.60;;;4.10;99.90;;;;;;5128447;27;20081;-74
2023/01/27 06:08:56;;;;;;;2.13;1.30;;;4.20;99.90;;;;;;5152438;27;20051;-77
2023/01/27 06:11:23;;;;;;;;;;;4.10;99.90;;;;;;5152894;27;20047;-75
2023/01/27 06:13:49;;;;;;;8.38;1.80;;;4.20;99.90;;;;;;5151904;27;19966;-74
2023/01/27 06:16:17;;;;;;;2.17;1.50;;;4.10;99.90;;;;;;5143280;27;20047;-73
2023/01/27 06:18:43;;;;;;;4.43;1.58;;;4.10;99.90;;;;;;5131487;27;20158;-75
2023/01/27 06:21:11;;;;;;;1.65;1.30;;;4.10;99.90;;;;;;5137390;27;20046;-74
2023/01/27 06:23:37;;;;;;;4.63;1.52;;;4.00;99.90;;;;;;5113295;27;20085;-74
2023/01/27 06:26:11;;;;;;;3.95;1.75;;;4.10;99.90;;;;;;5131190;27;20480;-74
2023/01/27 06:28:38;;;;;;;5.95;1.77;;;4.00;99.90;;;;;;5134954;27;20041;-74
2023/01/27 06:31:10;;;;;;;3.28;1.83;;;4.00;99.90;;;;;;5151979;27;20043;-74
2023/01/27 06:33:36;;;;;;;3.88;1.85;;;4.00;99.90;;;;;;5147456;27;20091;-74
2023/01/27 06:36:11;;;;;;;3.95;1.60;;;4.00;99.90;;;;;;5151585;27;20043;-78
2023/01/27 06:38:36;;;;;;;4.93;1.90;;;4.00;99.90;;;;;;5151481;27;20426;-73
2023/01/27 06:41:03;;;;;;;4.15;1.67;;;4.10;99.90;;;;;;5150662;27;20043;-74
2023/01/27 06:43:28;;;;;;;3.63;1.70;;;4.00;99.90;;;;;;5151194;27;20042;-73
2023/01/27 06:45:56;;;;;;;3.15;1.70;;;4.00;99.90;;;;;;5152225;27;20138;-73
2023/01/27 06:48:24;;;;;;;6.82;1.77;;;3.90;99.90;;;;;;5132857;27;20070;-73
2023/01/27 06:50:49;;;;;;;2.95;1.75;;;3.90;99.90;;;;;;5152419;27;20050;-74
2023/01/27 06:53:15;;;;;;;5.57;2.15;;;4.00;99.90;;;;;;5145727;27;20038;-73
2023/01/27 06:55:40;;;;;;;8.48;1.92;;;4.00;99.90;;;;;;5121411;28;20047;-74
2023/01/27 06:58:13;;;;;;;4.78;1.95;;;4.00;99.90;;;;;;5144498;27;20493;-74
2023/01/27 07:00:40;;;;;;;3.83;2.30;;;4.00;99.90;;;;;;5151775;27;20062;-75
2023/01/27 07:03:09;;;;;;;4.07;1.98;;;4.00;99.90;;;;;;5147301;27;20043;-72
2023/01/27 07:05:35;;;;;;;4.43;1.88;;;3.90;99.90;;;;;;5152293;27;20047;-75
2023/01/27 07:08:03;;;;;;;7.38;1.80;;;3.90;99.90;;;;;;5147541;27;20032;-81
2023/01/27 07:10:28;;;;;;;6.15;2.45;;;3.90;99.90;;;;;;5131376;28;20133;-75
2023/01/27 07:13:06;;;;;;;5.45;2.20;;;3.90;99.90;;;;;;5130037;28;20086;-76
2023/01/27 07:15:33;;;;;;;4.70;2.13;;;3.80;99.90;;;;;;5135743;27;20070;-73
2023/01/27 07:18:00;;;;;;;5.25;2.17;;;3.70;99.90;;;;;;5130793;28;20103;-73
2023/01/27 07:20:27;;;;;;;6.70;2.28;;;3.70;99.90;;;;;;5130915;28;20043;-73
2023/01/27 07:22:56;;;;;;;4.60;2.17;;;3.60;99.90;;;;;;5130756;28;20082;-73
2023/01/27 07:25:21;;;;;;;5.15;2.22;;;3.60;99.90;;;;;;5145423;27;20278;-73
2023/01/27 07:27:47;;;;;;;3.55;1.98;;;3.60;99.90;;;;;;5150853;27;20475;-71
2023/01/27 07:30:13;;;;;;;6.00;2.35;;;3.60;99.90;;;;;;5151359;27;20047;-74
2023/01/27 07:32:39;;;;;;;4.72;2.25;;;3.60;99.90;;;;;;5145558;27;20054;-72
2023/01/27 07:35:05;;;;;;;5.38;2.83;;;3.60;99.90;;;;;;5150908;27;20082;-79
2023/01/27 07:37:30;;;;;;;;;;;3.60;99.90;;;;;;5151584;27;20043;-73
2023/01/27 07:39:56;;;;;;;4.28;2.15;;;3.70;99.90;;;;;;5153720;27;19926;-73
2023/01/27 07:42:22;;;;;;;4.75;2.30;;;3.60;99.90;;;;;;5154247;27;20054;-72
2023/01/27 07:44:47;;;;;;;8.43;2.83;;;3.60;99.90;;;;;;5153315;27;20094;-72
2023/01/27 07:47:13;;;;;;;7.78;2.75;;;3.70;99.90;;;;;;5136608;27;20117;-73
2023/01/27 07:49:39;;;;;;;9.80;2.83;;;3.70;99.90;;;;;;5139517;27;20059;-73
2023/01/27 07:52:04;;;;;;;4.97;2.53;;;3.70;99.90;;;;;;5133959;27;20600;-79
2023/01/27 07:54:30;;;;;;;5.72;2.97;;;3.70;99.90;;;;;;5150271;27;20054;-74
2023/01/27 07:56:59;;;;;;;5.20;2.55;;;3.70;99.90;;;;;;5136234;27;20141;-73
2023/01/27 07:59:25;;;;;;;5.47;2.85;;;3.80;99.90;;;;;;5154179;27;20475;-72
2023/01/27 08:01:50;;;;;;;8.88;3.05;;;3.90;99.90;;;;;;5136721;27;20138;-67
2023/01/27 08:04:16;;;;;;;6.78;2.85;;;3.80;99.90;;;;;;5154233;27;20047;-66
2023/01/27 08:06:41;;;;;;;8.55;2.85;;;3.90;99.90;;;;;;5154221;27;20502;-72
2023/01/27 08:09:07;;;;;;;6.45;2.47;;;3.90;99.90;;;;;;5140485;27;20039;-72
2023/01/27 08:11:33;;;;;;;6.75;2.90;;;4.00;99.90;;;;;;5154048;27;20050;-73
2023/01/27 08:13:59;;;;;;;7.13;2.97;;;4.30;99.90;;;;;;5153729;27;20564;-72
2023/01/27 08:16:24;;;;;;;7.68;2.90;;;4.00;99.90;;;;;;5153744;27;20130;-74
2023/01/27 08:18:52;;;;;;;7.25;2.80;;;4.10;99.90;;;;;;5133688;27;20722;-74
2023/01/27 08:21:18;;;;;;;6.25;2.90;;;4.00;99.90;;;;;;5133055;27;20062;-74
2023/01/27 08:23:44;;;;;;;6.47;3.00;;;4.00;99.90;;;;;;5133933;27;20043;-74
2023/01/27 08:26:09;;;;;;;6.03;3.13;;;4.00;99.90;;;;;;5115022;27;20640;-76
2023/01/27 08:28:38;;;;;;;10.10;3.95;;;4.10;99.90;;;;;;5135338;27;20055;-74
2023/01/27 08:31:05;;;;;;;6.28;3.35;;;4.10;99.90;;;;;;5133882;27;20455;-74
2023/01/27 08:33:31;;;;;;;5.82;3.03;;;4.20;99.90;;;;;;5132949;27;20035;-75
2023/01/27 08:36:05;;;;;;;6.80;2.85;;;4.30;99.90;;;;;;5133909;27;20441;-74
2023/01/27 08:38:33;;;;;;;6.00;3.15;;;4.30;99.90;;;;;;5133053;27;20043;-73
2023/01/27 08:41:03;;;;;;;6.75;3.35;;;4.40;99.90;;;;;;5133634;27;20484;-74
2023/01/27 08:43:29;;;;;;;8.15;3.15;;;4.40;99.90;;;;;;5143648;27;20046;-74
2023/01/27 08:45:55;;;;;;;5.85;3.33;;;4.40;99.90;;;;;;5154505;27;20061;-73
2023/01/27 08:48:21;;;;;;;6.97;2.88;;;4.60;99.90;;;;;;5152435;27;20107;-74
2023/01/27 08:50:48;;;;;;;9.05;2.80;;;4.50;99.90;;;;;;5133158;27;20099;-74
2023/01/27 08:53:15;;;;;;;5.22;2.70;;;4.50;99.90;;;;;;5132178;27;20542;-74
2023/01/27 08:55:41;;;;;;;6.53;2.95;;;4.50;99.90;;;;;;5134581;27;20054;-74
2023/01/27 08:58:06;;;;;;;8.88;3.05;;;4.50;99.90;;;;;;5132396;27;20039;-72
2023/01/27 09:00:32;;;;;;;6.93;2.85;;;4.60;99.90;;;;;;5134673;27;20051;-72
2023/01/27 09:02:58;;;;;;;7.53;2.83;;;4.50;99.90;;;;;;5153641;27;20046;-74
2023/01/27 09:05:24;;;;;;;8.13;3.47;;;4.50;99.90;;;;;;5153498;27;20050;-72
2023/01/27 09:07:49;;;;;;;5.13;2.92;;;4.50;99.90;;;;;;5153354;27;20478;-73
2023/01/27 09:10:15;;;;;;;6.97;3.20;;;4.50;99.90;;;;;;5151464;27;20057;-72
2023/01/27 09:12:42;;;;;;;;;;;4.50;99.90;;;;;;5153342;27;20510;-73
2023/01/27 09:15:08;;;;;;;6.78;3.13;;;4.60;99.90;;;;;;5135162;27;20334;-74
2023/01/27 09:17:34;;;;;;;8.23;3.38;;;4.50;99.90;;;;;;5155070;27;20034;-76
2023/01/27 09:19:59;;;;;;;6.95;2.97;;;4.40;99.90;;;;;;5167782;27;20052;-75
2023/01/27 09:22:25;;;;;;;6.40;3.10;;;4.40;99.90;;;;;;5170152;27;20446;-75
2023/01/27 09:24:51;;;;;;;6.47;3.25;;;4.50;99.90;;;;;;5152268;27;20054;-74
2023/01/27 09:27:16;;;;;;;5.82;2.80;;;4.50;99.90;;;;;;5167808;27;20053;-75
2023/01/27 09:29:42;;;;;;;6.07;2.78;;;4.70;99.90;;;;;;5159453;27;20129;-75
2023/01/27 09:32:11;;;;;;;6.55;3.08;;;4.50;99.90;;;;;;5162560;27;20050;-75
2023/01/27 09:34:37;;;;;;;6.32;2.90;;;4.50;99.90;;;;;;5169596;27;20053;-75
2023/01/27 09:37:09;;;;;;;;;;;4.50;99.90;;;;;;5167972;27;20058;-75
2023/01/27 09:39:40;;;;;;;6.35;2.80;;;4.50;99.90;;;;;;5165260;27;19918;-76
2023/01/27 09:42:43;;;;;;;6.32;3.08;;;4.50;99.90;;;;;;5158682;27;20498;-75
2023/01/27 09:45:38;;;;;;;4.57;2.65;;;4.50;99.90;;;;;;5167455;27;20567;-75
2023/01/27 09:48:34;;;;;;;7.63;2.65;;;4.50;99.90;;;;;;5168469;27;20087;-74
2023/01/27 09:51:11;;;;;;;6.50;3.13;;;4.50;99.90;;;;;;5150120;27;20162;-74
2023/01/27 09:53:46;;;;;;;5.40;2.72;;;4.60;99.90;;;;;;5156424;27;20055;-74
2023/01/27 09:56:19;;;;;;;5.38;3.28;;;4.60;99.90;;;;;;5168075;27;20483;-74
2023/01/27 09:58:53;;;;;;;5.55;2.53;;;4.50;99.90;;;;;;5169630;27;20049;-74
2023/01/27 10:01:25;;;;;;;6.93;3.00;;;4.60;99.90;;;;;;5170716;27;20082;-76
2023/01/27 10:04:09;;;;;;;6.55;3.00;;;4.50;99.90;;;;;;5166279;27;20046;-74
2023/01/27 10:06:49;;;;;;;7.32;3.10;;;4.50;99.90;;;;;;5166555;27;20065;-76
2023/01/27 10:09:43;;;;;;;6.13;2.95;;;4.50;99.90;;;;;;5132622;27;20082;-74
2023/01/27 10:13:00;;;;;;;5.13;2.65;;;4.50;99.90;;;;;;5165421;27;20053;-74
2023/01/27 10:15:42;;;;;;;7.40;2.83;;;4.40;99.90;;;;;;5113076;27;20058;-74
2023/01/27 10:18:14;;;;;;;6.78;2.75;;;4.40;99.90;;;;;;5163600;27;20085;-75
2023/01/27 10:20:59;;;;;;;6.00;2.70;;;4.40;99.90;;;;;;5169065;27;20051;-74
2023/01/27 10:23:44;;;;;;;5.00;2.20;;;4.50;99.90;;;;;;5158763;27;20053;-74
2023/01/27 10:26:53;;;;;;;9.13;2.50;;;4.50;99.90;;;;;;5151528;27;20492;-75
2023/01/27 10:29:42;;;;;;;5.80;2.53;;;4.50;99.90;;;;;;5096074;28;20379;-80
2023/01/27 10:32:19;;;;;;;6.63;2.88;;;4.40;99.90;;;;;;5081780;28;20048;-75
2023/01/27 10:35:27;;;;;;;5.57;2.53;;;4.50;99.90;;;;;;5147054;27;20062;-72
2023/01/27 10:38:11;;;;;;;5.95;2.70;;;4.50;99.90;;;;;;5043287;28;20048;-75
2023/01/27 10:40:40;;;;;;;4.78;2.63;;;4.60;99.90;;;;;;5145924;27;20051;-74
2023/01/27 10:43:22;;;;;;;5.55;2.40;;;4.60;99.90;;;;;;5132326;27;20399;-74
2023/01/27 10:46:20;;;;;;;4.95;2.20;;;4.60;99.90;;;;;;5138644;27;20054;-74
2023/01/27 10:49:11;;;;;;;4.45;2.17;;;4.60;99.90;;;;;;5160550;27;20031;-74
2023/01/27 10:51:48;;;;;;;3.90;2.13;;;4.60;99.90;;;;;;5146837;27;20043;-76
2023/01/27 10:54:34;;;;;;;4.50;2.00;;;4.60;99.90;;;;;;5148920;27;20094;-74
2023/01/27 10:57:32;;;;;;;3.92;2.35;;;4.60;99.90;;;;;;5158822;27;20104;-75
2023/01/27 11:00:06;;;;;;;5.78;2.08;;;4.70;99.90;;;;;;5151393;27;20054;-74
2023/01/27 11:03:05;;;;;;;3.55;1.90;;;4.70;99.90;;;;;;5151177;27;20050;-74
2023/01/27 11:05:36;;;;;;;4.78;2.35;;;4.70;99.90;;;;;;5122900;27;20099;-74
2023/01/27 11:08:13;;;;;;;4.78;2.28;;;4.80;99.90;;;;;;5141122;27;20029;-74
2023/01/27 11:13:32;;;;;;;5.15;2.53;;;4.90;99.90;;;;;;5108857;27;20062;-74
2023/01/27 11:16:00;;;;;;;4.50;2.00;;;4.90;99.90;;;;;;5155450;27;20038;-76
2023/01/27 11:18:29;;;;;;;5.15;2.45;;;5.10;99.90;;;;;;5171042;27;20038;-74
2023/01/27 11:21:24;;;;;;;3.95;1.88;;;5.00;99.90;;;;;;5176783;27;20042;-74
2023/01/27 11:23:59;;;;;;;5.22;1.92;;;5.10;99.90;;;;;;5140001;27;20563;-74
2023/01/27 11:26:24;;;;;;;3.45;1.92;;;5.10;99.90;;;;;;5133776;27;20046;-76
2023/01/27 11:29:23;;;;;;;3.20;1.98;;;5.10;99.90;;;;;;5145646;27;20035;-74
2023/01/27 11:32:17;;;;;;;4.90;2.05;;;5.20;99.90;;;;;;5158965;27;20673;-75
2023/01/27 11:34:56;;;;;;;3.55;1.92;;;5.20;99.90;;;;;;5154121;27;20082;-75
2023/01/27 11:37:28;;;;;;;5.78;1.90;;;5.20;99.90;;;;;;5143182;27;20411;-75
2023/01/27 11:39:54;;;;;;;3.30;2.10;;;5.20;99.90;;;;;;5152884;27;20058;-75
2023/01/27 11:42:21;;;;;;;3.80;2.13;;;5.20;99.90;;;;;;5136307;27;20045;-74
2023/01/27 11:44:49;;;;;;;4.25;2.50;;;5.20;99.90;;;;;;5152025;27;20056;-75
2023/01/27 11:47:38;;;;;;;3.72;2.13;;;5.30;99.90;;;;;;5170718;27;20046;-73
2023/01/27 11:50:04;;;;;;;4.05;2.53;;;5.20;99.90;;;;;;5164209;27;20814;-74
2023/01/27 11:52:30;;;;;;;3.53;1.83;;;5.20;99.90;;;;;;5166205;27;20039;-74
2023/01/27 11:55:17;;;;;;;4.45;2.20;;;5.20;99.90;;;;;;5171750;27;20045;-73
2023/01/27 11:57:50;;;;;;;4.18;2.20;;;5.30;99.90;;;;;;5170529;27;20404;-74
2023/01/27 12:00:33;;;;;;;5.80;2.08;;;5.20;99.90;;;;;;5165053;27;20097;-74
2023/01/27 12:03:19;;;;;;;2.92;1.70;;;5.20;99.90;;;;;;5168930;27;20054;-74
2023/01/27 12:05:53;;;;;;;3.65;1.80;;;5.20;99.90;;;;;;5160353;27;20054;-75
2023/01/27 12:08:43;;;;;;;3.40;1.33;;;5.20;99.90;;;;;;5168859;27;20090;-74
2023/01/27 12:11:25;;;;;;;3.17;1.73;;;5.10;99.90;;;;;;5155795;27;20046;-74
2023/01/27 12:14:00;;;;;;;5.93;2.25;;;5.10;99.90;;;;;;5165027;27;20057;-75
2023/01/27 12:16:47;;;;;;;3.33;1.90;;;5.00;99.90;;;;;;5169511;27;20050;-74
2023/01/27 12:19:33;;;;;;;3.00;1.83;;;5.00;99.90;;;;;;5172541;27;20153;-74
2023/01/27 12:22:01;;;;;;;3.15;1.50;;;5.00;99.90;;;;;;5172248;27;20046;-74
2023/01/27 12:24:31;;;;;;;4.85;1.70;;;5.00;99.90;;;;;;5162514;27;20494;-75
2023/01/27 12:26:59;;;;;;;3.33;1.90;;;5.00;99.90;;;;;;5152937;27;20594;-74
2023/01/27 12:29:46;;;;;;;2.35;1.60;;;5.00;99.90;;;;;;5156595;27;20511;-74
2023/01/27 12:32:52;;;;;;;2.92;1.60;;;5.00;99.90;;;;;;5132319;27;20053;-75
2023/01/27 12:35:33;;;;;;;3.10;1.80;;;5.00;99.90;;;;;;5151678;27;20053;-74
2023/01/27 12:38:03;;;;;;;2.75;1.60;;;5.00;99.90;;;;;;5158539;27;20557;-75
2023/01/27 12:40:31;;;;;;;2.70;1.70;;;5.00;99.90;;;;;;5173399;27;20052;-77
2023/01/27 12:43:02;;;;;;;5.13;1.52;;;5.00;99.90;;;;;;5171684;27;20050;-73
2023/01/27 12:45:30;;;;;;;3.00;1.63;;;5.00;99.90;;;;;;5172877;27;20398;-73
2023/01/27 12:48:13;;;;;;;2.22;1.40;;;5.00;99.90;;;;;;5172191;27;20122;-73
2023/01/27 12:50:51;;;;;;;2.40;1.33;;;5.00;99.90;;;;;;5168613;27;20090;-74
2023/01/27 12:53:26;;;;;;;2.05;1.30;;;5.10;99.90;;;;;;5139480;27;20042;-75
2023/01/27 12:56:05;;;;;;;3.10;1.50;;;5.10;99.90;;;;;;5168923;27;20038;-74
2023/01/27 12:58:51;;;;;;;1.90;1.40;;;5.10;99.90;;;;;;5162241;27;20044;-77
2023/01/27 13:01:40;;;;;;;2.38;1.40;;;5.10;99.90;;;;;;5171388;27;20050;-75
2023/01/27 13:04:12;;;;;;;2.47;1.60;;;5.10;99.90;;;;;;5166272;27;20054;-74
2023/01/27 13:06:42;;;;;;;2.53;1.70;;;5.10;99.90;;;;;;5171435;27;20075;-74
2023/01/27 13:09:32;;;;;;;2.60;1.50;;;5.00;99.90;;;;;;5172230;27;20483;-74
2023/01/27 13:12:11;;;;;;;2.38;1.48;;;5.00;99.90;;;;;;5132081;27;20657;-74
2023/01/27 13:14:41;;;;;;;2.35;1.67;;;5.10;99.90;;;;;;5171198;27;20113;-73
2023/01/27 13:17:26;;;;;;;3.08;1.60;;;5.00;99.90;;;;;;5172317;27;20456;-74
2023/01/27 13:19:53;;;;;;;4.25;1.70;;;5.00;99.90;;;;;;5168037;27;20046;-74
2023/01/27 13:22:22;;;;;;;2.38;1.50;;;5.00;99.90;;;;;;5158725;27;20086;-74
2023/01/27 13:24:51;;;;;;;2.78;1.73;;;5.00;99.90;;;;;;5150234;27;20081;-74
2023/01/27 13:27:20;;;;;;;3.08;1.75;;;4.90;99.90;;;;;;5171300;27;20455;-74
2023/01/27 13:30:15;;;;;;;3.33;1.52;;;4.90;99.90;;;;;;5160671;27;20047;-74
2023/01/27 13:32:46;;;;;;;2.90;1.40;;;4.90;99.90;;;;;;5161747;27;20050;-74
2023/01/27 13:35:46;;;;;;;2.47;1.55;;;4.90;99.90;;;;;;5171829;27;20049;-74
2023/01/27 13:38:20;;;;;;;3.50;1.33;;;4.90;99.90;;;;;;5170333;27;20395;-76
2023/01/27 13:40:47;;;;;;;1.92;1.40;;;4.90;99.90;;;;;;5171420;27;20042;-74
2023/01/27 13:43:29;;;;;;;3.47;1.40;;;4.80;99.90;;;;;;5168152;27;20101;-74
2023/01/27 13:46:32;;;;;;;2.03;1.40;;;4.80;99.90;;;;;;5171045;27;20094;-74